Weather History for Newport, VT

Change the Weather History Date:

Monday, April 7, 2014

  Actual Average Record
Temperature  
Mean Temperature 41 °F -  
Max Temperature 55 °F 46 °F 79 °F (1991)
Min Temperature 27 °F 26 °F 5 °F (1943)
Degree Days  
Heating Degree Days 24    
Moisture  
Dew Point 22 °F    
Average Humidity 48    
Maximum Humidity 77    
Minimum Humidity 24    
Precipitation  
Precipitation 0.00 in - - ()
Sea Level Pressure  
Sea Level Pressure 30.07 in    
Wind  
Wind Speed 5 mph (South)    
Max Wind Speed 22 mph    
Max Gust Speed 31 mph    
Visibility 10 miles    
Events Rain    
Averages and records for this station are not official NWS values.
T = Trace of Precipitation, MM = Missing Value Source: NWS Daily Summary

Daily Weather History Graph

Daily Weather History Graph

Search for Another Location

Airport:

Trip Planner

Search our weather history database for the weather conditions in past years. The results will help you decide how hot, cold, wet, or windy it might be!

Date:

Astronomy

Apr. 07, 2014 Rise Set
Actual Time 6:18 AM EDT 7:24 PM EDT
Civil Twilight 5:48 AM EDT 7:54 PM EDT
Nautical Twilight 5:12 AM EDT 8:30 PM EDT
Astronomical Twilight 4:35 AM EDT 9:08 PM EDT
Moon 12:05 PM EDT (4/7) 2:06 AM EDT (4/7)
Length of Visible Light 14h 05m
Length of Day
13h 05m
First Quarter, 53% of the Moon is Illuminated
Apr 7
First Quarter
Apr 15
Full
Apr 22
Last Quarter
Apr 29
New
May 6
First Quarter

Hourly Weather History & Observations

Time (EDT) Temp. Windchill Dew Point Humidity Pressure Visibility Wind Dir Wind Speed Gust Speed Precip Events Conditions
12:15 AM 32.0 °F - 21.9 °F 66% 30.15 in 10.0 mi Calm Calm - N/A   Clear
12:35 AM 31.1 °F - 21.7 °F 68% 30.15 in 10.0 mi Calm Calm - N/A   Clear
1:15 AM 30.0 °F - 22.8 °F 75% 30.15 in 10.0 mi Calm Calm - N/A   Clear
1:35 AM 29.5 °F - 22.1 °F 74% 30.15 in 10.0 mi Calm Calm - N/A   Clear
1:55 AM 32.0 °F 27.5 °F 22.1 °F 67% 30.15 in 10.0 mi SW 4.6 mph - N/A   Clear
2:15 AM 29.3 °F 25.6 °F 22.3 °F 75% 30.15 in 10.0 mi SSW 3.5 mph - N/A   Clear
2:35 AM 29.7 °F 26.1 °F 21.9 °F 73% 30.15 in 10.0 mi SW 3.5 mph - N/A   Clear
2:55 AM 29.5 °F 24.5 °F 22.3 °F 75% 30.15 in 10.0 mi SW 4.6 mph - N/A   Clear
3:15 AM 28.4 °F 24.6 °F 21.9 °F 77% 30.15 in 10.0 mi SW 3.5 mph - N/A   Clear
3:35 AM 29.1 °F 23.0 °F 21.9 °F 74% 30.15 in 10.0 mi SW 5.8 mph - N/A   Clear
3:55 AM 28.8 °F 25.0 °F 21.0 °F 73% 30.16 in 10.0 mi SSW 3.5 mph - N/A   Clear
4:15 AM 31.3 °F 26.6 °F 20.8 °F 65% 30.17 in 10.0 mi South 4.6 mph - N/A   Clear
4:35 AM 29.8 °F - 21.0 °F 70% 30.16 in 10.0 mi Calm Calm - N/A   Clear
4:55 AM 28.0 °F 20.8 °F 20.7 °F 74% 30.17 in 10.0 mi SW 6.9 mph - N/A   Clear
5:15 AM 27.1 °F - 20.7 °F 77% 30.17 in 10.0 mi Calm Calm - N/A   Clear
5:35 AM 28.9 °F 25.2 °F 20.7 °F 71% 30.17 in 10.0 mi South 3.5 mph - N/A   Clear
5:55 AM 29.1 °F 24.1 °F 20.3 °F 70% 30.17 in 10.0 mi SSW 4.6 mph - N/A   Clear
6:15 AM 30.4 °F 23.6 °F 19.8 °F 65% 30.17 in 10.0 mi SSW 6.9 mph - N/A   Clear
6:35 AM 30.4 °F 22.9 °F 19.2 °F 63% 30.17 in 10.0 mi SSW 8.1 mph - N/A   Clear
6:55 AM 28.6 °F 21.5 °F 19.8 °F 70% 30.17 in 10.0 mi SSW 6.9 mph - N/A   Clear
7:15 AM 28.8 °F 22.6 °F 20.8 °F 72% 30.17 in 10.0 mi SSW 5.8 mph - N/A   Clear
7:35 AM 30.2 °F 25.4 °F 20.3 °F 67% 30.17 in 10.0 mi SSW 4.6 mph - N/A   Clear
8:15 AM 32.0 °F 25.6 °F 22.1 °F 67% 30.17 in 10.0 mi SSW 6.9 mph - N/A   Clear
8:35 AM 34.7 °F 29.6 °F 22.6 °F 61% 30.17 in 10.0 mi SSW 5.8 mph - N/A   Clear
8:55 AM 37.4 °F 34.9 °F 21.2 °F 52% 30.18 in 10.0 mi South 3.5 mph - N/A   Clear
9:15 AM 41.0 °F 38.0 °F 21.4 °F 46% 30.17 in 10.0 mi SSW 4.6 mph - N/A   Clear
9:35 AM 42.3 °F 38.6 °F 21.6 °F 44% 30.17 in 10.0 mi SW 5.8 mph - N/A   Clear
9:55 AM 44.1 °F 41.5 °F 20.3 °F 39% 30.17 in 10.0 mi SW 4.6 mph - N/A   Clear
10:15 AM 45.9 °F 43.6 °F 19.0 °F 34% 30.16 in 10.0 mi SW 4.6 mph - N/A   Clear
10:35 AM 46.4 °F 44.3 °F 19.9 °F 35% 30.15 in 10.0 mi SW 4.6 mph - N/A   Clear
10:55 AM 48.0 °F - 18.9 °F 31% 30.14 in 10.0 mi SW 4.6 mph - N/A   Clear
11:15 AM 48.7 °F - 20.7 °F 33% 30.14 in 10.0 mi SSW 6.9 mph - N/A   Clear
11:55 AM 50.7 °F - 19.0 °F 29% 30.12 in 10.0 mi SSE 9.2 mph - N/A   Clear
12:15 PM 52.2 °F - 18.7 °F 27% 30.11 in 10.0 mi SSE 9.2 mph - N/A   Clear
12:35 PM 51.3 °F - 21.0 °F 31% 30.10 in 10.0 mi SSE 9.2 mph - N/A   Clear
12:55 PM 52.0 °F - 22.5 °F 32% 30.09 in 10.0 mi SE 9.2 mph - N/A   Clear
1:15 PM 51.4 °F - 23.5 °F 34% 30.08 in 10.0 mi SSE 10.4 mph - N/A   Clear
1:35 PM 54.1 °F - 20.8 °F 27% 30.08 in 10.0 mi SSE 12.7 mph 16.1 mph N/A   Clear
1:55 PM 53.2 °F - 21.4 °F 29% 30.06 in 10.0 mi SSE 15.0 mph 19.6 mph N/A   Clear
2:15 PM 55.2 °F - 20.1 °F 25% 30.07 in 10.0 mi South 10.4 mph - N/A   Clear
2:35 PM 55.8 °F - 19.4 °F 24% 30.05 in 10.0 mi South 10.4 mph 16.1 mph N/A   Clear
2:55 PM 55.2 °F - 19.8 °F 25% 30.05 in 10.0 mi SSE 12.7 mph 17.3 mph N/A   Clear
3:15 PM 55.6 °F - 19.4 °F 24% 30.05 in 10.0 mi SSE 11.5 mph - N/A   Clear
3:35 PM 54.7 °F - 19.2 °F 25% 30.04 in 10.0 mi SSE 15.0 mph - N/A   Clear
3:55 PM 54.7 °F - 19.4 °F 25% 30.04 in 10.0 mi South 8.1 mph - N/A   Clear
4:15 PM 53.6 °F - 20.5 °F 27% 30.03 in 10.0 mi SSE 9.2 mph 18.4 mph N/A   Clear
4:35 PM 52.2 °F - 21.9 °F 31% 30.02 in 10.0 mi SSE 8.1 mph 17.3 mph N/A   Clear
4:55 PM 51.6 °F - 21.6 °F 31% 30.02 in 10.0 mi SSE 10.4 mph 17.3 mph N/A   Clear
5:15 PM 52.0 °F - 20.1 °F 29% 30.02 in 10.0 mi SSE 12.7 mph - N/A   Clear
5:35 PM 50.4 °F - 20.7 °F 31% 30.01 in 10.0 mi SSE 8.1 mph 16.1 mph N/A   Clear
5:55 PM 49.8 °F - 21.4 °F 33% 30.00 in 10.0 mi SSE 10.4 mph - N/A   Clear
6:15 PM 50.2 °F - 20.3 °F 31% 30.00 in 10.0 mi South 8.1 mph - N/A   Clear
6:35 PM 50.7 °F - 19.6 °F 29% 30.00 in 10.0 mi South 6.9 mph - N/A   Clear
6:55 PM 49.6 °F - 20.5 °F 32% 30.00 in 10.0 mi South 5.8 mph - N/A   Mostly Cloudy
7:15 PM 46.2 °F 42.7 °F 23.7 °F 41% 29.99 in 10.0 mi SSE 6.9 mph - N/A   Mostly Cloudy
7:35 PM 48.0 °F - 21.6 °F 35% 29.98 in 10.0 mi SSE 9.2 mph - N/A   Scattered Clouds
7:55 PM 47.5 °F - 22.3 °F 37% 29.98 in 10.0 mi SSE 11.5 mph - N/A   Scattered Clouds
8:15 PM 45.5 °F 41.3 °F 23.9 °F 43% 29.97 in 10.0 mi SSE 8.1 mph - N/A   Mostly Cloudy
8:35 PM 44.4 °F 40.0 °F 24.6 °F 46% 29.95 in 10.0 mi SE 8.1 mph - N/A   Overcast
8:55 PM 43.3 °F 38.1 °F 25.7 °F 50% 29.95 in 10.0 mi SE 9.2 mph - N/A   Mostly Cloudy
9:15 PM 43.9 °F 38.8 °F 25.5 °F 48% 29.94 in 10.0 mi SSE 9.2 mph - N/A   Overcast
9:35 PM 47.5 °F - 22.8 °F 38% 29.93 in 10.0 mi SSE 9.2 mph - N/A   Overcast
9:55 PM 47.7 °F - 22.8 °F 38% 29.92 in 10.0 mi SSE 9.2 mph 16.1 mph N/A   Overcast
10:15 PM 46.2 °F 42.2 °F 24.1 °F 42% 29.90 in 10.0 mi SSE 8.1 mph - N/A   Overcast
10:35 PM 46.6 °F - 23.9 °F 41% 29.89 in 10.0 mi SSE 6.9 mph - N/A   Overcast
10:55 PM 48.2 °F - 23.7 °F 38% 29.89 in 10.0 mi South 15.0 mph 25.3 mph N/A   Overcast
11:15 PM 46.8 °F - 28.2 °F 49% 29.90 in 10.0 mi South 21.9 mph 31.1 mph N/A   Overcast
11:35 PM 44.4 °F 36.9 °F 30.9 °F 59% 29.91 in 10.0 mi South 17.3 mph 27.6 mph N/A Rain Light Rain
11:55 PM 42.4 °F 36.5 °F 32.0 °F 67% 29.89 in 10.0 mi South 10.4 mph 18.4 mph N/A   Drizzle